createdAt,value
2022-07-25T00:01:21.031Z,20.22
2022-07-25T00:06:27.858Z,21.41
2022-07-25T00:11:34.989Z,23.17
2022-07-25T00:16:41.982Z,23.34
2022-07-25T00:21:48.461Z,24.30
2022-07-25T00:26:55.383Z,24.12
2022-07-25T00:32:02.493Z,24.73
2022-07-25T00:37:09.435Z,21.89
2022-07-25T00:42:16.540Z,24.42
2022-07-25T00:47:23.498Z,21.09
2022-07-25T00:52:30.597Z,17.42
2022-07-25T00:57:37.560Z,21.77
2022-07-25T01:02:44.737Z,22.57
2022-07-25T01:07:51.700Z,19.62
2022-07-25T01:12:58.764Z,22.29
2022-07-25T01:18:05.779Z,21.85
2022-07-25T01:23:12.873Z,22.32
2022-07-25T01:28:19.823Z,17.38
2022-07-25T01:33:27.002Z,19.15
2022-07-25T01:38:33.943Z,23.03
2022-07-25T01:43:41.110Z,21.05
2022-07-25T01:48:48.099Z,19.62
2022-07-25T01:53:55.267Z,22.85
2022-07-25T01:59:02.265Z,19.27
2022-07-25T02:04:09.681Z,22.59
2022-07-25T02:09:15.914Z,21.48
2022-07-25T02:14:22.900Z,22.03
2022-07-25T02:19:30.008Z,17.68
2022-07-25T02:24:36.996Z,16.14
2022-07-25T02:29:44.149Z,17.86
2022-07-25T02:34:51.202Z,15.47
2022-07-25T02:39:58.417Z,15.88
2022-07-25T02:45:05.428Z,16.82
2022-07-25T02:50:14.580Z,17.77
2022-07-25T02:55:18.933Z,17.12
2022-07-25T03:00:26.075Z,20.94
2022-07-25T03:05:33.108Z,18.43
2022-07-25T03:10:40.186Z,20.73
2022-07-25T03:15:47.159Z,21.33
2022-07-25T03:20:55.735Z,19.14
2022-07-25T03:26:02.721Z,23.05
2022-07-25T03:31:09.847Z,22.04
2022-07-25T03:36:16.866Z,23.33
2022-07-25T03:41:23.996Z,21.05
2022-07-25T03:46:30.660Z,22.55
2022-07-25T03:51:37.576Z,23.87
2022-07-25T03:56:45.119Z,21.84
2022-07-25T04:01:52.234Z,18.16
2022-07-25T04:06:59.144Z,20.07
2022-07-25T04:12:06.288Z,17.50
2022-07-25T04:17:13.320Z,23.51
2022-07-25T04:22:20.212Z,18.49
2022-07-25T04:27:27.140Z,21.75
2022-07-25T04:32:34.108Z,19.14
2022-07-25T04:37:41.050Z,21.02
2022-07-25T04:42:48.255Z,19.23
2022-07-25T04:47:55.282Z,21.06
2022-07-25T04:53:02.437Z,20.69
2022-07-25T04:58:09.425Z,22.36
2022-07-25T05:03:16.554Z,19.28
2022-07-25T05:08:23.535Z,14.72
2022-07-25T05:13:30.512Z,19.39
2022-07-25T05:18:37.605Z,19.06
2022-07-25T05:23:44.635Z,17.52
2022-07-25T05:28:51.872Z,16.30
2022-07-25T05:33:58.878Z,13.63
2022-07-25T05:39:05.861Z,12.95
2022-07-25T05:44:12.853Z,10.30
2022-07-25T05:49:19.979Z,7.77
2022-07-25T05:54:26.897Z,9.95
2022-07-25T05:59:33.516Z,13.60
2022-07-25T06:04:40.466Z,8.92
2022-07-25T06:09:47.603Z,10.58
2022-07-25T06:14:54.541Z,9.24
2022-07-25T06:20:01.698Z,9.47
2022-07-25T06:25:08.683Z,6.51
2022-07-25T06:30:20.253Z,8.35
2022-07-25T06:35:22.456Z,6.62
2022-07-25T06:40:29.576Z,7.87
2022-07-25T06:45:36.782Z,9.14
2022-07-25T06:50:43.829Z,8.22
2022-07-25T06:55:50.835Z,7.05
2022-07-25T07:00:57.923Z,7.87
2022-07-25T07:06:05.956Z,10.74
2022-07-25T07:11:13.022Z,10.98
2022-07-25T07:16:20.221Z,10.33
2022-07-25T07:21:27.181Z,15.03
2022-07-25T07:26:33.774Z,13.81
2022-07-25T07:31:40.710Z,17.50
2022-07-25T07:36:47.854Z,16.11
2022-07-25T07:41:55.267Z,18.77
2022-07-25T07:47:02.541Z,15.80
2022-07-25T07:52:09.693Z,18.90
2022-07-25T07:57:16.704Z,17.01
2022-07-25T08:02:23.745Z,18.45
2022-07-25T08:07:30.929Z,17.39
2022-07-25T08:12:37.912Z,19.72
2022-07-25T08:17:45.113Z,19.82
2022-07-25T08:22:56.378Z,16.29
2022-07-25T08:27:58.553Z,22.30
2022-07-25T08:33:05.543Z,23.41
2022-07-25T08:38:12.531Z,20.92
2022-07-25T08:43:19.545Z,18.61
2022-07-25T08:48:26.684Z,18.88
2022-07-25T08:53:34.346Z,17.17
2022-07-25T08:58:40.180Z,18.27
2022-07-25T09:03:47.161Z,15.90
2022-07-25T09:08:54.399Z,18.41
2022-07-25T09:14:01.296Z,19.40
2022-07-25T09:19:08.474Z,20.85
2022-07-25T09:24:16.716Z,18.32
2022-07-25T09:29:23.828Z,21.28
2022-07-25T09:34:30.851Z,20.77
2022-07-25T09:39:40.780Z,23.08
2022-07-25T09:44:44.357Z,22.22
2022-07-25T09:49:51.457Z,19.08
2022-07-25T09:54:58.493Z,20.73
2022-07-25T10:00:05.653Z,22.12
2022-07-25T10:05:12.573Z,20.68
2022-07-25T10:10:19.736Z,21.29
2022-07-25T10:15:26.748Z,22.27
2022-07-25T10:20:33.871Z,24.01
2022-07-25T10:25:41.607Z,22.50
2022-07-25T10:30:47.750Z,24.25
2022-07-25T10:35:54.639Z,28.93
2022-07-25T10:41:01.640Z,24.36
2022-07-25T10:46:08.619Z,28.54
2022-07-25T10:51:15.759Z,25.90
2022-07-25T10:56:22.667Z,23.81
2022-07-25T11:01:29.726Z,24.36
2022-07-25T11:06:36.837Z,23.04
2022-07-25T11:11:43.786Z,18.06
2022-07-25T11:16:50.878Z,21.14
2022-07-25T11:21:57.865Z,16.71
2022-07-25T11:27:09.722Z,17.78
2022-07-25T11:32:11.415Z,19.39
2022-07-25T11:37:18.550Z,18.99
2022-07-25T11:42:25.491Z,16.92
2022-07-25T11:47:34.074Z,16.70
2022-07-25T11:52:41.084Z,18.07
2022-07-25T11:57:48.144Z,18.60
2022-07-25T12:02:55.228Z,15.40
2022-07-25T12:08:02.263Z,15.31
2022-07-25T12:13:09.217Z,15.53
2022-07-25T12:18:16.383Z,14.35
2022-07-25T12:23:23.386Z,16.46
2022-07-25T12:28:30.644Z,13.02
2022-07-25T12:33:37.691Z,13.34
2022-07-25T12:38:44.891Z,14.68
2022-07-25T12:43:51.877Z,14.30
2022-07-25T12:48:59.224Z,12.48
2022-07-25T12:54:06.318Z,16.23
2022-07-25T12:59:13.196Z,15.12
2022-07-25T13:04:20.280Z,18.63
2022-07-25T13:09:27.669Z,18.39
2022-07-25T13:14:34.643Z,17.38
2022-07-25T13:19:41.822Z,17.42
2022-07-25T13:24:48.798Z,16.00
2022-07-25T13:29:55.831Z,18.84
2022-07-25T13:35:02.823Z,15.83
2022-07-25T13:40:09.915Z,17.69
2022-07-25T13:45:16.889Z,18.00
2022-07-25T13:50:24.015Z,27.19
2022-07-25T13:55:30.986Z,25.44
2022-07-25T14:00:38.180Z,22.70
2022-07-25T14:05:45.127Z,20.71
2022-07-25T14:10:52.129Z,20.95
2022-07-25T14:15:59.055Z,21.50
2022-07-25T14:21:06.106Z,21.79
2022-07-25T14:26:13.105Z,19.32
2022-07-25T14:31:20.271Z,28.40
2022-07-25T14:36:27.233Z,22.73
2022-07-25T14:41:34.305Z,23.35
2022-07-25T14:46:41.385Z,27.71
2022-07-25T14:51:48.358Z,25.90
2022-07-25T14:56:55.507Z,25.68
2022-07-25T15:02:02.497Z,25.74
2022-07-25T15:07:09.673Z,23.21
2022-07-25T15:12:17.138Z,27.68
2022-07-25T15:17:23.352Z,22.56
2022-07-25T15:22:30.393Z,22.05
2022-07-25T15:27:37.568Z,23.66
2022-07-25T15:32:44.644Z,21.81
2022-07-25T15:37:51.746Z,22.50
2022-07-25T15:42:58.773Z,24.29
2022-07-25T15:48:05.957Z,25.85
2022-07-25T15:53:12.983Z,25.49
2022-07-25T15:58:20.194Z,21.71
2022-07-25T16:03:28.717Z,18.90
2022-07-25T16:08:34.731Z,21.36
2022-07-25T16:13:41.690Z,18.52
2022-07-25T16:18:48.863Z,16.36
2022-07-25T16:23:55.837Z,17.12
2022-07-25T16:29:02.806Z,14.96
2022-07-25T16:34:09.342Z,11.95
2022-07-25T16:39:16.316Z,14.79
2022-07-25T16:44:23.392Z,17.75
2022-07-25T16:49:30.578Z,16.80
2022-07-25T16:54:37.529Z,16.05
2022-07-25T16:59:44.882Z,17.30
2022-07-25T17:04:51.819Z,16.10
2022-07-25T17:09:58.926Z,12.11
2022-07-25T17:15:05.867Z,13.39
2022-07-25T17:20:13.016Z,15.13
2022-07-25T17:25:19.934Z,15.29
2022-07-25T17:30:27.996Z,15.72
2022-07-25T17:35:34.953Z,17.41
2022-07-25T17:40:42.023Z,15.89
2022-07-25T17:45:48.992Z,16.48
2022-07-25T17:50:56.162Z,14.96
2022-07-25T17:56:03.332Z,18.93
2022-07-25T18:01:10.765Z,17.73
2022-07-25T18:06:17.537Z,19.87
2022-07-25T18:11:24.680Z,18.35
2022-07-25T18:16:32.094Z,13.90
2022-07-25T18:21:39.184Z,21.20
2022-07-25T18:26:46.331Z,15.51
2022-07-25T18:31:53.590Z,18.03
2022-07-25T18:37:00.712Z,13.75
2022-07-25T18:42:07.991Z,11.13
2022-07-25T18:47:15.488Z,14.18
2022-07-25T18:52:22.450Z,16.36
2022-07-25T18:57:29.569Z,12.68
2022-07-25T19:02:36.512Z,12.51
2022-07-25T19:07:43.598Z,13.19
2022-07-25T19:12:50.631Z,16.35
2022-07-25T19:17:57.833Z,13.56
2022-07-25T19:23:04.784Z,17.58
2022-07-25T19:28:11.432Z,18.68
2022-07-25T19:33:18.478Z,20.10
2022-07-25T19:38:25.553Z,18.91
2022-07-25T19:43:32.656Z,18.03
2022-07-25T19:48:39.933Z,22.52
2022-07-25T19:53:46.862Z,22.38
2022-07-25T19:58:53.949Z,17.74
2022-07-25T20:04:00.925Z,23.98
2022-07-25T20:09:08.119Z,19.87
2022-07-25T20:14:15.025Z,21.52
2022-07-25T20:19:22.062Z,25.13
2022-07-25T20:24:29.072Z,23.51
2022-07-25T20:29:37.005Z,17.26
2022-07-25T20:34:43.568Z,19.67
2022-07-25T20:39:50.730Z,21.47
2022-07-25T20:44:57.941Z,22.63
2022-07-25T20:50:05.429Z,21.30
2022-07-25T20:55:12.455Z,23.41
2022-07-25T21:00:19.557Z,22.08
2022-07-25T21:05:26.706Z,25.20
2022-07-25T21:10:33.934Z,22.82
2022-07-25T21:15:41.137Z,27.33
2022-07-25T21:20:49.507Z,24.26
2022-07-25T21:26:01.076Z,20.43
2022-07-25T21:30:58.100Z,20.34
2022-07-25T21:36:05.913Z,18.70
2022-07-25T21:41:12.964Z,18.44
2022-07-25T21:46:20.108Z,19.43
2022-07-25T21:51:26.968Z,23.02
2022-07-25T21:56:33.665Z,18.97
2022-07-25T22:01:40.598Z,18.91
2022-07-25T22:06:47.522Z,17.07
2022-07-25T22:11:54.662Z,19.36
2022-07-25T22:17:01.679Z,19.61
2022-07-25T22:22:08.709Z,15.48
2022-07-25T22:27:15.752Z,21.65
2022-07-25T22:32:22.840Z,19.92
2022-07-25T22:37:32.680Z,17.14
2022-07-25T22:42:36.471Z,15.17
2022-07-25T22:47:43.401Z,16.94
2022-07-25T22:52:51.620Z,15.55
2022-07-25T22:57:58.561Z,16.68
2022-07-25T23:03:05.622Z,18.18
2022-07-25T23:08:12.562Z,19.00
2022-07-25T23:13:19.228Z,16.53
2022-07-25T23:18:26.271Z,17.30
2022-07-25T23:23:33.348Z,16.62
2022-07-25T23:28:40.345Z,19.14
2022-07-25T23:33:47.283Z,13.01
2022-07-25T23:38:54.415Z,13.74
2022-07-25T23:44:01.358Z,13.12
2022-07-25T23:49:08.766Z,16.95
2022-07-25T23:54:14.949Z,13.53
2022-07-25T23:59:22.090Z,15.59
